sensor_id;sensor_type;location;lat;lon;timestamp;pressure;altitude;pressure_sealevel;temperature;humidity
69689;BME280;56932;38.402;-96.176;2023-03-03T00:02:24;96618.48;;;20.90;21.75
69689;BME280;56932;38.402;-96.176;2023-03-03T00:04:50;96613.98;;;22.40;20.92
69689;BME280;56932;38.402;-96.176;2023-03-03T00:07:15;96612.72;;;21.39;21.60
69689;BME280;56932;38.402;-96.176;2023-03-03T00:09:40;96617.10;;;21.27;22.17
69689;BME280;56932;38.402;-96.176;2023-03-03T00:12:16;96624.20;;;21.92;21.50
69689;BME280;56932;38.402;-96.176;2023-03-03T00:14:32;96628.56;;;22.27;20.99
69689;BME280;56932;38.402;-96.176;2023-03-03T00:16:58;96630.21;;;21.22;20.37
69689;BME280;56932;38.402;-96.176;2023-03-03T00:19:22;96637.90;;;21.89;19.93
69689;BME280;56932;38.402;-96.176;2023-03-03T00:21:49;96658.38;;;21.88;20.38
69689;BME280;56932;38.402;-96.176;2023-03-03T00:24:18;96678.26;;;20.93;20.97
69689;BME280;56932;38.402;-96.176;2023-03-03T00:26:40;96708.02;;;22.21;20.49
69689;BME280;56932;38.402;-96.176;2023-03-03T00:31:32;96753.20;;;21.82;22.02
69689;BME280;56932;38.402;-96.176;2023-03-03T00:33:56;96756.69;;;20.97;22.23
69689;BME280;56932;38.402;-96.176;2023-03-03T00:36:27;96757.55;;;22.29;21.12
69689;BME280;56932;38.402;-96.176;2023-03-03T00:38:47;96751.98;;;22.10;21.09
69689;BME280;56932;38.402;-96.176;2023-03-03T00:41:21;96753.11;;;21.29;21.49
69689;BME280;56932;38.402;-96.176;2023-03-03T00:43:37;96747.36;;;21.76;21.49
69689;BME280;56932;38.402;-96.176;2023-03-03T00:46:03;96747.85;;;21.60;21.16
69689;BME280;56932;38.402;-96.176;2023-03-03T00:48:31;96740.76;;;22.22;20.82
69689;BME280;56932;38.402;-96.176;2023-03-03T00:50:55;96738.27;;;22.08;20.93
69689;BME280;56932;38.402;-96.176;2023-03-03T00:53:21;96721.23;;;22.96;20.63
69689;BME280;56932;38.402;-96.176;2023-03-03T00:55:47;96697.34;;;22.55;20.91
69689;BME280;56932;38.402;-96.176;2023-03-03T00:58:10;96672.55;;;22.84;20.64
69689;BME280;56932;38.402;-96.176;2023-03-03T01:00:37;96669.95;;;23.03;20.56
69689;BME280;56932;38.402;-96.176;2023-03-03T01:03:04;96679.10;;;22.37;20.77
69689;BME280;56932;38.402;-96.176;2023-03-03T01:05:27;96684.53;;;23.13;20.50
69689;BME280;56932;38.402;-96.176;2023-03-03T01:07:53;96674.49;;;22.48;20.52
69689;BME280;56932;38.402;-96.176;2023-03-03T01:10:18;96666.96;;;23.06;20.41
69689;BME280;56932;38.402;-96.176;2023-03-03T01:12:44;96654.52;;;22.20;20.94
69689;BME280;56932;38.402;-96.176;2023-03-03T01:15:12;96650.27;;;22.31;20.72
69689;BME280;56932;38.402;-96.176;2023-03-03T01:17:35;96649.54;;;23.12;20.17
69689;BME280;56932;38.402;-96.176;2023-03-03T01:20:01;96646.37;;;21.59;20.53
69689;BME280;56932;38.402;-96.176;2023-03-03T01:22:26;96641.58;;;22.27;20.34
69689;BME280;56932;38.402;-96.176;2023-03-03T01:24:52;96646.99;;;22.67;20.23
69689;BME280;56932;38.402;-96.176;2023-03-03T01:27:17;96657.15;;;22.19;20.69
69689;BME280;56932;38.402;-96.176;2023-03-03T01:29:42;96652.92;;;22.51;20.21
69689;BME280;56932;38.402;-96.176;2023-03-03T01:32:08;96645.98;;;22.87;20.10
69689;BME280;56932;38.402;-96.176;2023-03-03T01:34:33;96645.95;;;21.97;21.02
69689;BME280;56932;38.402;-96.176;2023-03-03T01:36:59;96640.65;;;21.91;20.83
69689;BME280;56932;38.402;-96.176;2023-03-03T01:39:24;96646.22;;;22.96;20.54
69689;BME280;56932;38.402;-96.176;2023-03-03T01:41:50;96651.89;;;21.15;22.17
69689;BME280;56932;38.402;-96.176;2023-03-03T01:44:15;96644.56;;;22.46;21.32
69689;BME280;56932;38.402;-96.176;2023-03-03T01:46:46;96641.57;;;21.80;22.26
69689;BME280;56932;38.402;-96.176;2023-03-03T01:49:12;96646.53;;;21.70;22.26
69689;BME280;56932;38.402;-96.176;2023-03-03T01:51:34;96649.28;;;22.71;21.33
69689;BME280;56932;38.402;-96.176;2023-03-03T01:54:00;96657.31;;;21.97;21.38
69689;BME280;56932;38.402;-96.176;2023-03-03T01:56:23;96648.19;;;22.60;21.64
69689;BME280;56932;38.402;-96.176;2023-03-03T01:58:51;96619.34;;;22.57;21.88
69689;BME280;56932;38.402;-96.176;2023-03-03T02:01:16;96599.91;;;22.76;22.14
69689;BME280;56932;38.402;-96.176;2023-03-03T02:03:40;96605.76;;;21.97;22.90
69689;BME280;56932;38.402;-96.176;2023-03-03T02:06:08;96614.68;;;21.96;22.95
69689;BME280;56932;38.402;-96.176;2023-03-03T02:08:35;96616.98;;;22.34;22.49
69689;BME280;56932;38.402;-96.176;2023-03-03T02:10:57;96609.95;;;22.14;22.14
69689;BME280;56932;38.402;-96.176;2023-03-03T02:13:22;96616.14;;;22.63;21.75
69689;BME280;56932;38.402;-96.176;2023-03-03T02:15:47;96607.25;;;22.53;21.57
69689;BME280;56932;38.402;-96.176;2023-03-03T02:18:14;96626.28;;;22.52;21.55
69689;BME280;56932;38.402;-96.176;2023-03-03T02:20:47;96650.73;;;22.19;21.64
69689;BME280;56932;38.402;-96.176;2023-03-03T02:23:08;96650.96;;;22.26;21.13
69689;BME280;56932;38.402;-96.176;2023-03-03T02:25:36;96650.18;;;22.06;21.32
69689;BME280;56932;38.402;-96.176;2023-03-03T02:27:55;96637.37;;;21.44;21.36
69689;BME280;56932;38.402;-96.176;2023-03-03T02:30:21;96600.95;;;22.54;20.70
69689;BME280;56932;38.402;-96.176;2023-03-03T02:32:46;96559.53;;;22.11;20.89
69689;BME280;56932;38.402;-96.176;2023-03-03T02:37:37;96520.36;;;21.83;20.94
69689;BME280;56932;38.402;-96.176;2023-03-03T02:40:03;96539.30;;;21.99;20.54
69689;BME280;56932;38.402;-96.176;2023-03-03T02:42:29;96550.50;;;21.98;20.71
69689;BME280;56932;38.402;-96.176;2023-03-03T02:44:54;96558.46;;;22.18;20.53
69689;BME280;56932;38.402;-96.176;2023-03-03T02:47:19;96571.93;;;22.16;21.09
69689;BME280;56932;38.402;-96.176;2023-03-03T02:49:44;96550.06;;;22.36;21.51
69689;BME280;56932;38.402;-96.176;2023-03-03T02:52:11;96528.85;;;22.36;21.49
69689;BME280;56932;38.402;-96.176;2023-03-03T02:54:36;96501.11;;;22.40;22.05
69689;BME280;56932;38.402;-96.176;2023-03-03T02:57:02;96488.33;;;21.68;22.08
69689;BME280;56932;38.402;-96.176;2023-03-03T02:59:27;96511.01;;;21.36;22.70
69689;BME280;56932;38.402;-96.176;2023-03-03T03:01:53;96547.69;;;22.21;21.95
69689;BME280;56932;38.402;-96.176;2023-03-03T03:04:20;96561.81;;;21.78;22.18
69689;BME280;56932;38.402;-96.176;2023-03-03T03:06:43;96556.38;;;22.05;22.15
69689;BME280;56932;38.402;-96.176;2023-03-03T03:09:09;96561.16;;;22.11;22.09
69689;BME280;56932;38.402;-96.176;2023-03-03T03:11:34;96553.57;;;22.11;22.11
69689;BME280;56932;38.402;-96.176;2023-03-03T03:13:59;96549.00;;;21.79;21.95
69689;BME280;56932;38.402;-96.176;2023-03-03T03:16:25;96523.44;;;21.77;22.42
69689;BME280;56932;38.402;-96.176;2023-03-03T03:18:51;96503.55;;;21.91;22.27
69689;BME280;56932;38.402;-96.176;2023-03-03T03:21:16;96520.36;;;22.29;22.07
69689;BME280;56932;38.402;-96.176;2023-03-03T03:23:42;96548.20;;;21.86;22.39
69689;BME280;56932;38.402;-96.176;2023-03-03T03:26:07;96568.90;;;22.22;22.04
69689;BME280;56932;38.402;-96.176;2023-03-03T03:28:32;96576.23;;;22.30;22.08
69689;BME280;56932;38.402;-96.176;2023-03-03T03:30:58;96567.93;;;21.17;22.25
69689;BME280;56932;38.402;-96.176;2023-03-03T03:33:24;96567.02;;;21.82;22.45
69689;BME280;56932;38.402;-96.176;2023-03-03T03:35:49;96559.79;;;21.14;22.61
69689;BME280;56932;38.402;-96.176;2023-03-03T03:38:15;96555.22;;;21.45;22.19
69689;BME280;56932;38.402;-96.176;2023-03-03T03:40:40;96541.38;;;21.32;22.55
69689;BME280;56932;38.402;-96.176;2023-03-03T03:43:06;96530.19;;;21.44;22.08
69689;BME280;56932;38.402;-96.176;2023-03-03T03:45:31;96530.62;;;21.29;22.36
69689;BME280;56932;38.402;-96.176;2023-03-03T03:47:57;96513.96;;;20.02;22.78
69689;BME280;56932;38.402;-96.176;2023-03-03T03:50:22;96494.89;;;20.96;22.43
69689;BME280;56932;38.402;-96.176;2023-03-03T03:52:48;96490.93;;;21.19;22.13
69689;BME280;56932;38.402;-96.176;2023-03-03T03:55:13;96485.34;;;20.85;22.34
69689;BME280;56932;38.402;-96.176;2023-03-03T03:57:39;96475.24;;;20.84;22.34
69689;BME280;56932;38.402;-96.176;2023-03-03T04:00:06;96475.07;;;20.53;22.27
69689;BME280;56932;38.402;-96.176;2023-03-03T04:02:30;96470.21;;;20.70;22.35
69689;BME280;56932;38.402;-96.176;2023-03-03T04:04:56;96454.58;;;20.06;22.36
69689;BME280;56932;38.402;-96.176;2023-03-03T04:07:21;96445.87;;;20.75;22.17
69689;BME280;56932;38.402;-96.176;2023-03-03T04:09:46;96441.47;;;21.22;22.07
69689;BME280;56932;38.402;-96.176;2023-03-03T04:12:12;96450.48;;;20.52;22.19
69689;BME280;56932;38.402;-96.176;2023-03-03T04:14:37;96459.25;;;19.80;22.74
69689;BME280;56932;38.402;-96.176;2023-03-03T04:17:03;96458.47;;;19.56;22.47
69689;BME280;56932;38.402;-96.176;2023-03-03T04:19:29;96472.06;;;20.53;22.03
69689;BME280;56932;38.402;-96.176;2023-03-03T04:21:54;96462.42;;;20.26;21.99
69689;BME280;56932;38.402;-96.176;2023-03-03T04:24:19;96440.02;;;20.52;21.87
69689;BME280;56932;38.402;-96.176;2023-03-03T04:26:45;96488.75;;;20.27;22.06
69689;BME280;56932;38.402;-96.176;2023-03-03T04:29:11;96442.83;;;20.38;21.94
69689;BME280;56932;38.402;-96.176;2023-03-03T04:31:36;96368.63;;;20.33;21.88
69689;BME280;56932;38.402;-96.176;2023-03-03T04:34:02;96445.46;;;19.41;22.23
69689;BME280;56932;38.402;-96.176;2023-03-03T04:36:27;96440.67;;;20.30;22.05
69689;BME280;56932;38.402;-96.176;2023-03-03T04:38:53;96370.71;;;20.17;21.67
69689;BME280;56932;38.402;-96.176;2023-03-03T04:41:18;96414.26;;;19.66;22.21
69689;BME280;56932;38.402;-96.176;2023-03-03T04:43:44;96423.30;;;20.42;21.80
69689;BME280;56932;38.402;-96.176;2023-03-03T04:46:10;96416.58;;;20.32;21.66
69689;BME280;56932;38.402;-96.176;2023-03-03T04:48:35;96464.73;;;20.26;21.69
69689;BME280;56932;38.402;-96.176;2023-03-03T04:51:01;96480.05;;;19.82;21.79
69689;BME280;56932;38.402;-96.176;2023-03-03T04:53:26;96429.69;;;19.55;22.24
69689;BME280;56932;38.402;-96.176;2023-03-03T04:55:53;96404.93;;;19.76;21.96
69689;BME280;56932;38.402;-96.176;2023-03-03T04:58:17;96395.83;;;19.82;21.87
69689;BME280;56932;38.402;-96.176;2023-03-03T05:00:42;96353.58;;;20.01;21.65
69689;BME280;56932;38.402;-96.176;2023-03-03T05:03:10;96356.30;;;20.18;21.39
69689;BME280;56932;38.402;-96.176;2023-03-03T05:05:34;96388.26;;;19.74;21.68
69689;BME280;56932;38.402;-96.176;2023-03-03T05:07:59;96397.88;;;19.55;21.38
69689;BME280;56932;38.402;-96.176;2023-03-03T05:10:25;96385.09;;;19.97;21.43
69689;BME280;56932;38.402;-96.176;2023-03-03T05:12:51;96357.32;;;19.94;21.57
69689;BME280;56932;38.402;-96.176;2023-03-03T05:15:16;96329.88;;;19.65;21.61
69689;BME280;56932;38.402;-96.176;2023-03-03T05:17:41;96329.80;;;20.03;21.59
69689;BME280;56932;38.402;-96.176;2023-03-03T05:20:09;96333.67;;;19.50;21.60
69689;BME280;56932;38.402;-96.176;2023-03-03T05:22:33;96337.29;;;19.97;21.59
69689;BME280;56932;38.402;-96.176;2023-03-03T05:24:59;96330.79;;;19.24;21.57
69689;BME280;56932;38.402;-96.176;2023-03-03T05:27:24;96318.99;;;19.85;21.44
69689;BME280;56932;38.402;-96.176;2023-03-03T05:29:49;96304.21;;;20.12;21.41
69689;BME280;56932;38.402;-96.176;2023-03-03T05:32:15;96292.27;;;19.70;21.38
69689;BME280;56932;38.402;-96.176;2023-03-03T05:34:41;96302.32;;;19.81;21.61
69689;BME280;56932;38.402;-96.176;2023-03-03T05:37:06;96317.27;;;18.72;21.88
69689;BME280;56932;38.402;-96.176;2023-03-03T05:39:32;96337.67;;;19.62;21.70
69689;BME280;56932;38.402;-96.176;2023-03-03T05:41:57;96366.61;;;18.92;21.68
69689;BME280;56932;38.402;-96.176;2023-03-03T05:44:22;96387.69;;;19.79;21.53
69689;BME280;56932;38.402;-96.176;2023-03-03T05:46:48;96370.90;;;19.15;21.84
69689;BME280;56932;38.402;-96.176;2023-03-03T05:49:13;96362.40;;;18.81;21.92
69689;BME280;56932;38.402;-96.176;2023-03-03T05:51:39;96392.24;;;19.41;21.61
69689;BME280;56932;38.402;-96.176;2023-03-03T05:54:05;96392.48;;;18.69;22.08
69689;BME280;56932;38.402;-96.176;2023-03-03T05:56:30;96381.38;;;19.09;21.65
69689;BME280;56932;38.402;-96.176;2023-03-03T05:58:56;96385.54;;;18.98;21.50
69689;BME280;56932;38.402;-96.176;2023-03-03T06:01:21;96362.87;;;19.32;21.77
69689;BME280;56932;38.402;-96.176;2023-03-03T06:03:47;96292.04;;;19.55;21.56
69689;BME280;56932;38.402;-96.176;2023-03-03T06:06:13;96237.32;;;18.14;21.33
69689;BME280;56932;38.402;-96.176;2023-03-03T06:08:37;96260.43;;;19.80;20.83
69689;BME280;56932;38.402;-96.176;2023-03-03T06:11:03;96261.91;;;19.02;21.25
69689;BME280;56932;38.402;-96.176;2023-03-03T06:13:29;96232.05;;;19.60;21.36
69689;BME280;56932;38.402;-96.176;2023-03-03T06:15:55;96203.14;;;19.14;21.38
69689;BME280;56932;38.402;-96.176;2023-03-03T06:18:20;96189.10;;;19.46;21.24
69689;BME280;56932;38.402;-96.176;2023-03-03T06:20:49;96196.01;;;19.40;21.49
69689;BME280;56932;38.402;-96.176;2023-03-03T06:23:11;96212.10;;;19.32;21.36
69689;BME280;56932;38.402;-96.176;2023-03-03T06:25:39;96232.78;;;19.99;21.25
69689;BME280;56932;38.402;-96.176;2023-03-03T06:28:02;96252.11;;;18.81;21.63
69689;BME280;56932;38.402;-96.176;2023-03-03T06:30:28;96249.20;;;19.12;21.76
69689;BME280;56932;38.402;-96.176;2023-03-03T06:32:54;96240.88;;;19.01;21.68
69689;BME280;56932;38.402;-96.176;2023-03-03T06:35:19;96228.09;;;18.88;21.74
69689;BME280;56932;38.402;-96.176;2023-03-03T06:37:44;96219.26;;;18.91;21.89
69689;BME280;56932;38.402;-96.176;2023-03-03T06:40:11;96204.09;;;19.14;21.48
69689;BME280;56932;38.402;-96.176;2023-03-03T06:42:35;96190.39;;;19.30;21.51
69689;BME280;56932;38.402;-96.176;2023-03-03T06:45:01;96167.23;;;19.00;21.27
69689;BME280;56932;38.402;-96.176;2023-03-03T06:47:27;96166.26;;;19.33;21.55
69689;BME280;56932;38.402;-96.176;2023-03-03T06:49:53;96195.02;;;18.69;21.85
69689;BME280;56932;38.402;-96.176;2023-03-03T06:52:21;96233.53;;;19.31;21.41
69689;BME280;56932;38.402;-96.176;2023-03-03T06:54:44;96275.21;;;18.80;21.79
69689;BME280;56932;38.402;-96.176;2023-03-03T06:57:16;96285.41;;;19.08;21.40
69689;BME280;56932;38.402;-96.176;2023-03-03T06:59:34;96287.17;;;18.98;21.51
69689;BME280;56932;38.402;-96.176;2023-03-03T07:02:00;96308.34;;;18.85;21.47
69689;BME280;56932;38.402;-96.176;2023-03-03T07:04:28;96321.45;;;19.18;21.56
69689;BME280;56932;38.402;-96.176;2023-03-03T07:06:52;96322.12;;;18.80;21.64
69689;BME280;56932;38.402;-96.176;2023-03-03T07:09:20;96315.40;;;19.26;21.44
69689;BME280;56932;38.402;-96.176;2023-03-03T07:11:42;96313.39;;;19.21;21.48
69689;BME280;56932;38.402;-96.176;2023-03-03T07:14:14;96319.18;;;19.03;21.41
69689;BME280;56932;38.402;-96.176;2023-03-03T07:16:33;96314.98;;;19.75;21.41
69689;BME280;56932;38.402;-96.176;2023-03-03T07:19:00;96313.60;;;18.25;21.64
69689;BME280;56932;38.402;-96.176;2023-03-03T07:21:30;96314.35;;;19.00;21.63
69689;BME280;56932;38.402;-96.176;2023-03-03T07:23:52;96322.65;;;19.27;21.61
69689;BME280;56932;38.402;-96.176;2023-03-03T07:26:18;96316.86;;;19.04;21.58
69689;BME280;56932;38.402;-96.176;2023-03-03T07:28:43;96304.50;;;18.37;22.16
69689;BME280;56932;38.402;-96.176;2023-03-03T07:31:16;96293.81;;;19.09;21.63
69689;BME280;56932;38.402;-96.176;2023-03-03T07:33:36;96276.37;;;19.05;21.83
69689;BME280;56932;38.402;-96.176;2023-03-03T07:35:59;96260.86;;;18.32;21.86
69689;BME280;56932;38.402;-96.176;2023-03-03T07:38:30;96257.90;;;19.38;21.76
69689;BME280;56932;38.402;-96.176;2023-03-03T07:40:51;96255.88;;;18.91;22.10
69689;BME280;56932;38.402;-96.176;2023-03-03T07:43:29;96246.86;;;18.70;21.91
69689;BME280;56932;38.402;-96.176;2023-03-03T07:45:40;96256.57;;;18.72;21.89
69689;BME280;56932;38.402;-96.176;2023-03-03T07:48:15;96287.36;;;18.94;21.72
69689;BME280;56932;38.402;-96.176;2023-03-03T07:50:33;96301.86;;;18.76;21.83
69689;BME280;56932;38.402;-96.176;2023-03-03T07:52:59;96307.14;;;18.26;21.87
69689;BME280;56932;38.402;-96.176;2023-03-03T07:55:30;96313.26;;;18.63;21.93
69689;BME280;56932;38.402;-96.176;2023-03-03T07:57:50;96312.30;;;18.49;22.24
69689;BME280;56932;38.402;-96.176;2023-03-03T08:02:42;96308.28;;;18.88;21.98
69689;BME280;56932;38.402;-96.176;2023-03-03T08:07:31;96314.28;;;18.97;21.93
69689;BME280;56932;38.402;-96.176;2023-03-03T08:09:58;96310.52;;;18.23;22.08
69689;BME280;56932;38.402;-96.176;2023-03-03T08:12:31;96295.63;;;18.26;22.28
69689;BME280;56932;38.402;-96.176;2023-03-03T08:14:50;96278.32;;;19.04;21.83
69689;BME280;56932;38.402;-96.176;2023-03-03T08:17:18;96267.02;;;18.85;21.77
69689;BME280;56932;38.402;-96.176;2023-03-03T08:19:39;96245.43;;;19.08;21.97
69689;BME280;56932;38.402;-96.176;2023-03-03T08:22:12;96238.71;;;18.51;22.06
69689;BME280;56932;38.402;-96.176;2023-03-03T08:24:30;96229.01;;;18.84;22.00
69689;BME280;56932;38.402;-96.176;2023-03-03T08:26:56;96220.28;;;18.16;21.98
69689;BME280;56932;38.402;-96.176;2023-03-03T08:29:21;96210.44;;;18.75;21.86
69689;BME280;56932;38.402;-96.176;2023-03-03T08:31:47;96200.51;;;19.07;21.82
69689;BME280;56932;38.402;-96.176;2023-03-03T08:34:12;96194.59;;;18.69;21.90
69689;BME280;56932;38.402;-96.176;2023-03-03T08:36:38;96187.32;;;18.61;21.97
69689;BME280;56932;38.402;-96.176;2023-03-03T08:39:04;96183.17;;;18.37;21.97
69689;BME280;56932;38.402;-96.176;2023-03-03T08:41:29;96178.88;;;18.61;21.95
69689;BME280;56932;38.402;-96.176;2023-03-03T08:43:55;96174.31;;;18.48;22.04
69689;BME280;56932;38.402;-96.176;2023-03-03T08:46:21;96165.33;;;18.72;21.86
69689;BME280;56932;38.402;-96.176;2023-03-03T08:48:46;96173.77;;;18.99;22.04
69689;BME280;56932;38.402;-96.176;2023-03-03T08:51:11;96175.74;;;18.31;22.16
69689;BME280;56932;38.402;-96.176;2023-03-03T08:53:37;96175.70;;;18.51;22.24
69689;BME280;56932;38.402;-96.176;2023-03-03T08:56:03;96175.27;;;18.34;21.98
69689;BME280;56932;38.402;-96.176;2023-03-03T08:58:28;96176.78;;;18.65;22.32
69689;BME280;56932;38.402;-96.176;2023-03-03T09:00:54;96164.43;;;18.37;22.18
69689;BME280;56932;38.402;-96.176;2023-03-03T09:03:20;96159.94;;;18.30;22.21
69689;BME280;56932;38.402;-96.176;2023-03-03T09:05:45;96167.35;;;18.68;22.11
69689;BME280;56932;38.402;-96.176;2023-03-03T09:08:11;96159.79;;;18.34;22.15
69689;BME280;56932;38.402;-96.176;2023-03-03T09:10:36;96153.61;;;18.92;22.09
69689;BME280;56932;38.402;-96.176;2023-03-03T09:13:07;96155.21;;;18.31;22.16
69689;BME280;56932;38.402;-96.176;2023-03-03T09:15:30;96146.63;;;18.71;22.24
69689;BME280;56932;38.402;-96.176;2023-03-03T09:17:54;96139.01;;;17.84;22.82
69689;BME280;56932;38.402;-96.176;2023-03-03T09:20:26;96128.69;;;18.73;22.21
69689;BME280;56932;38.402;-96.176;2023-03-03T09:22:44;96126.15;;;18.36;22.35
69689;BME280;56932;38.402;-96.176;2023-03-03T09:25:21;96122.50;;;17.65;22.73
69689;BME280;56932;38.402;-96.176;2023-03-03T09:27:36;96118.10;;;18.38;22.53
69689;BME280;56932;38.402;-96.176;2023-03-03T09:30:02;96113.49;;;17.24;22.47
69689;BME280;56932;38.402;-96.176;2023-03-03T09:32:33;96107.98;;;18.74;22.21
69689;BME280;56932;38.402;-96.176;2023-03-03T09:34:53;96109.51;;;18.16;22.31
69689;BME280;56932;38.402;-96.176;2023-03-03T09:37:21;96099.65;;;18.47;22.26
69689;BME280;56932;38.402;-96.176;2023-03-03T09:39:43;96093.47;;;18.53;22.36
69689;BME280;56932;38.402;-96.176;2023-03-03T09:42:22;96098.67;;;17.82;22.81
69689;BME280;56932;38.402;-96.176;2023-03-03T09:44:47;96100.15;;;18.41;22.47
69689;BME280;56932;38.402;-96.176;2023-03-03T09:47:12;96097.93;;;17.98;22.20
69689;BME280;56932;38.402;-96.176;2023-03-03T09:49:30;96086.75;;;18.37;22.30
69689;BME280;56932;38.402;-96.176;2023-03-03T09:52:02;96051.94;;;18.47;22.18
69689;BME280;56932;38.402;-96.176;2023-03-03T09:54:27;96031.28;;;18.37;22.46
69689;BME280;56932;38.402;-96.176;2023-03-03T09:56:45;96038.77;;;18.35;22.27
69689;BME280;56932;38.402;-96.176;2023-03-03T09:59:17;96057.74;;;17.85;22.48
69689;BME280;56932;38.402;-96.176;2023-03-03T10:01:44;96085.45;;;18.32;22.51
69689;BME280;56932;38.402;-96.176;2023-03-03T10:04:10;96099.63;;;18.08;22.14
69689;BME280;56932;38.402;-96.176;2023-03-03T10:06:28;96100.52;;;17.57;23.16
69689;BME280;56932;38.402;-96.176;2023-03-03T10:08:58;96088.25;;;16.61;23.86
69689;BME280;56932;38.402;-96.176;2023-03-03T10:11:23;96074.94;;;18.38;22.58
69689;BME280;56932;38.402;-96.176;2023-03-03T10:13:51;96068.27;;;17.11;23.72
69689;BME280;56932;38.402;-96.176;2023-03-03T10:16:19;96063.05;;;16.94;24.00
69689;BME280;56932;38.402;-96.176;2023-03-03T10:18:38;96054.29;;;16.77;24.13
69689;BME280;56932;38.402;-96.176;2023-03-03T10:21:06;96051.10;;;16.14;24.33
69689;BME280;56932;38.402;-96.176;2023-03-03T10:25:55;96050.41;;;17.23;23.92
69689;BME280;56932;38.402;-96.176;2023-03-03T10:28:23;96059.19;;;16.85;24.32
69689;BME280;56932;38.402;-96.176;2023-03-03T10:30:47;96080.91;;;16.83;24.42
69689;BME280;56932;38.402;-96.176;2023-03-03T10:33:11;96112.09;;;16.50;24.58
69689;BME280;56932;38.402;-96.176;2023-03-03T10:35:44;96136.65;;;16.84;24.55
69689;BME280;56932;38.402;-96.176;2023-03-03T10:38:11;96141.72;;;16.66;24.58
69689;BME280;56932;38.402;-96.176;2023-03-03T10:40:26;96132.93;;;17.17;24.37
69689;BME280;56932;38.402;-96.176;2023-03-03T10:45:25;96108.73;;;16.95;24.28
69689;BME280;56932;38.402;-96.176;2023-03-03T10:47:52;96114.74;;;17.67;23.94
69689;BME280;56932;38.402;-96.176;2023-03-03T10:50:14;96116.94;;;17.30;24.12
69689;BME280;56932;38.402;-96.176;2023-03-03T10:52:36;96119.70;;;17.59;24.36
69689;BME280;56932;38.402;-96.176;2023-03-03T10:57:28;96129.35;;;17.81;24.30
69689;BME280;56932;38.402;-96.176;2023-03-03T10:59:57;96127.84;;;17.26;24.64
69689;BME280;56932;38.402;-96.176;2023-03-03T11:02:18;96130.05;;;17.58;24.59
69689;BME280;56932;38.402;-96.176;2023-03-03T11:04:49;96133.52;;;17.57;24.65
69689;BME280;56932;38.402;-96.176;2023-03-03T11:07:08;96143.57;;;17.21;24.41
69689;BME280;56932;38.402;-96.176;2023-03-03T11:09:43;96142.80;;;17.91;24.22
69689;BME280;56932;38.402;-96.176;2023-03-03T11:12:00;96137.89;;;17.21;24.46
69689;BME280;56932;38.402;-96.176;2023-03-03T11:14:25;96123.60;;;17.70;24.70
69689;BME280;56932;38.402;-96.176;2023-03-03T11:16:55;96111.62;;;17.55;24.68
69689;BME280;56932;38.402;-96.176;2023-03-03T11:21:42;96118.16;;;17.88;24.45
69689;BME280;56932;38.402;-96.176;2023-03-03T11:24:14;96124.62;;;17.26;24.61
69689;BME280;56932;38.402;-96.176;2023-03-03T11:26:37;96115.72;;;17.99;24.15
69689;BME280;56932;38.402;-96.176;2023-03-03T11:29:07;96116.55;;;17.30;24.53
69689;BME280;56932;38.402;-96.176;2023-03-03T11:31:24;96112.00;;;18.03;24.40
69689;BME280;56932;38.402;-96.176;2023-03-03T11:33:52;96111.41;;;18.66;23.63
69689;BME280;56932;38.402;-96.176;2023-03-03T11:36:17;96116.25;;;17.59;24.33
69689;BME280;56932;38.402;-96.176;2023-03-03T11:38:45;96120.41;;;18.17;24.27
69689;BME280;56932;38.402;-96.176;2023-03-03T11:41:06;96117.47;;;17.62;24.16
69689;BME280;56932;38.402;-96.176;2023-03-03T11:43:30;96118.29;;;17.98;24.27
69689;BME280;56932;38.402;-96.176;2023-03-03T11:45:56;96123.82;;;18.91;23.43
69689;BME280;56932;38.402;-96.176;2023-03-03T11:48:23;96128.05;;;18.13;24.06
69689;BME280;56932;38.402;-96.176;2023-03-03T11:50:52;96126.30;;;19.13;23.20
69689;BME280;56932;38.402;-96.176;2023-03-03T11:53:24;96126.92;;;18.99;22.99
69689;BME280;56932;38.402;-96.176;2023-03-03T11:55:37;96129.66;;;18.41;23.39
69689;BME280;56932;38.402;-96.176;2023-03-03T11:58:07;96132.57;;;19.39;22.61
69689;BME280;56932;38.402;-96.176;2023-03-03T12:00:29;96137.80;;;18.64;23.23
69689;BME280;56932;38.402;-96.176;2023-03-03T12:02:59;96138.09;;;19.11;22.79
69689;BME280;56932;38.402;-96.176;2023-03-03T12:05:28;96138.35;;;19.59;22.36
69689;BME280;56932;38.402;-96.176;2023-03-03T12:07:48;96145.78;;;19.74;22.25
69689;BME280;56932;38.402;-96.176;2023-03-03T12:10:16;96150.84;;;18.77;22.96
69689;BME280;56932;38.402;-96.176;2023-03-03T12:12:37;96137.70;;;19.75;22.19
69689;BME280;56932;38.402;-96.176;2023-03-03T12:15:08;96136.84;;;19.38;21.84
69689;BME280;56932;38.402;-96.176;2023-03-03T12:17:38;96139.60;;;20.11;21.83
69689;BME280;56932;38.402;-96.176;2023-03-03T12:19:54;96145.10;;;20.19;21.75
69689;BME280;56932;38.402;-96.176;2023-03-03T12:22:26;96140.26;;;19.75;22.18
69689;BME280;56932;38.402;-96.176;2023-03-03T12:24:52;96148.25;;;19.76;22.12
69689;BME280;56932;38.402;-96.176;2023-03-03T12:27:15;96160.70;;;19.42;22.40
69689;BME280;56932;38.402;-96.176;2023-03-03T12:29:38;96155.98;;;19.99;21.93
69689;BME280;56932;38.402;-96.176;2023-03-03T12:32:07;96149.10;;;19.64;21.63
69689;BME280;56932;38.402;-96.176;2023-03-03T12:34:28;96148.31;;;20.14;21.97
69689;BME280;56932;38.402;-96.176;2023-03-03T12:39:24;96148.85;;;20.33;21.63
69689;BME280;56932;38.402;-96.176;2023-03-03T12:41:43;96152.47;;;19.89;21.99
69689;BME280;56932;38.402;-96.176;2023-03-03T12:44:14;96153.15;;;19.81;21.85
69689;BME280;56932;38.402;-96.176;2023-03-03T12:46:41;96151.27;;;19.48;22.32
69689;BME280;56932;38.402;-96.176;2023-03-03T12:48:57;96154.84;;;19.65;21.83
69689;BME280;56932;38.402;-96.176;2023-03-03T12:51:34;96172.32;;;20.23;21.79
69689;BME280;56932;38.402;-96.176;2023-03-03T12:54:04;96177.41;;;19.77;22.18